createdAt,value
2022-10-22T00:02:05.921Z,100190.66
2022-10-22T00:04:35.396Z,100189.28
2022-10-22T00:07:03.468Z,100188.44
2022-10-22T00:09:32.535Z,100184.94
2022-10-22T00:12:00.319Z,100181.25
2022-10-22T00:14:27.921Z,100191.94
2022-10-22T00:16:56.325Z,100197.53
2022-10-22T00:19:23.909Z,100195.94
2022-10-22T00:21:51.468Z,100192.63
2022-10-22T00:24:19.206Z,100194.47
2022-10-22T00:26:48.220Z,100196.28
2022-10-22T00:29:18.614Z,100196.44
2022-10-22T00:31:49.743Z,100197.63
2022-10-22T00:34:18.066Z,100196.16
2022-10-22T00:36:45.680Z,100193.69
2022-10-22T00:39:16.074Z,100195.41
2022-10-22T00:41:43.903Z,100207.38
2022-10-22T00:44:44.872Z,100199.16
2022-10-22T00:47:14.291Z,100204.13
2022-10-22T00:49:42.176Z,100207.81
2022-10-22T00:52:10.309Z,100205.56
2022-10-22T00:54:38.781Z,100201.66
2022-10-22T00:57:06.508Z,100203.22
2022-10-22T00:59:34.487Z,100204.84
2022-10-22T01:02:02.048Z,100214.63
2022-10-22T01:04:31.015Z,100224.06
2022-10-22T01:06:58.631Z,100229.81
2022-10-22T01:09:34.533Z,100228.09
2022-10-22T01:12:10.652Z,100216.94
2022-10-22T01:14:53.286Z,100225.94
2022-10-22T01:17:31.270Z,100217.72
2022-10-22T01:20:11.744Z,100225.09
2022-10-22T01:22:43.846Z,100227.50
2022-10-22T01:25:17.439Z,100224.22
2022-10-22T01:27:56.737Z,100232.03
2022-10-22T01:30:27.087Z,100227.13
2022-10-22T01:33:00.293Z,100231.59
2022-10-22T01:38:07.763Z,100229.28
2022-10-22T01:40:37.463Z,100235.03
2022-10-22T01:43:07.459Z,100233.19
2022-10-22T01:45:39.347Z,100229.28
2022-10-22T01:48:22.194Z,100226.63
2022-10-22T01:51:06.149Z,100223.31
2022-10-22T01:53:41.721Z,100222.56
2022-10-22T01:56:26.073Z,100226.25
2022-10-22T01:59:05.577Z,100227.25
2022-10-22T02:01:42.540Z,100229.56
2022-10-22T02:04:18.122Z,100231.59
2022-10-22T02:06:47.937Z,100221.47
2022-10-22T02:09:18.623Z,100223.94
2022-10-22T02:11:47.279Z,100227.44
2022-10-22T02:14:17.044Z,100220.06
2022-10-22T02:16:48.619Z,100225.41
2022-10-22T02:19:21.201Z,100219.25
2022-10-22T02:21:48.852Z,100216.94
2022-10-22T02:24:18.380Z,100212.22
2022-10-22T02:26:53.342Z,100205.63
2022-10-22T02:29:26.646Z,100202.53
2022-10-22T02:31:57.764Z,100194.53
2022-10-22T02:34:29.934Z,100187.31
2022-10-22T02:36:58.431Z,100179.88
2022-10-22T02:39:27.412Z,100182.16
2022-10-22T02:41:55.516Z,100184.22
2022-10-22T02:44:23.596Z,100176.94
2022-10-22T02:46:51.466Z,100166.25
2022-10-22T02:49:20.529Z,100174.91
2022-10-22T02:51:48.184Z,100175.75
2022-10-22T02:54:15.822Z,100186.94
2022-10-22T02:56:43.741Z,100190.81
2022-10-22T02:59:11.493Z,100197.38
2022-10-22T03:01:39.131Z,100189.56
2022-10-22T03:04:06.767Z,100185.59
2022-10-22T03:06:35.781Z,100189.56
2022-10-22T03:09:03.430Z,100194.91
2022-10-22T03:11:31.092Z,100202.00
2022-10-22T03:13:58.675Z,100202.34
2022-10-22T03:16:26.235Z,100196.63
2022-10-22T03:18:53.842Z,100207.75
2022-10-22T03:21:30.753Z,100211.47
2022-10-22T03:24:02.734Z,100218.47
2022-10-22T03:26:30.639Z,100228.78
2022-10-22T03:29:00.792Z,100242.88
2022-10-22T03:31:28.381Z,100260.00
2022-10-22T03:33:56.202Z,100267.03
2022-10-22T03:36:23.898Z,100254.66
2022-10-22T03:38:51.660Z,100242.50
2022-10-22T03:41:20.695Z,100248.59
2022-10-22T03:43:51.498Z,100255.44
2022-10-22T03:46:19.195Z,100245.88
2022-10-22T03:48:47.006Z,100232.38
2022-10-22T03:51:14.607Z,100224.84
2022-10-22T03:53:42.237Z,100263.13
2022-10-22T03:56:10.995Z,100278.16
2022-10-22T03:58:41.389Z,100277.97
2022-10-22T04:01:10.650Z,100278.59
2022-10-22T04:03:38.623Z,100282.03
2022-10-22T04:06:08.699Z,100280.09
2022-10-22T04:08:36.582Z,100293.19
2022-10-22T04:11:04.392Z,100304.06
2022-10-22T04:13:31.979Z,100315.69
2022-10-22T04:16:09.647Z,100313.78
2022-10-22T04:18:37.308Z,100319.88
2022-10-22T04:21:06.543Z,100323.91
2022-10-22T04:23:34.207Z,100328.81
2022-10-22T04:26:03.445Z,100332.13
2022-10-22T04:28:31.130Z,100328.00
2022-10-22T04:30:58.743Z,100328.34
2022-10-22T04:33:28.020Z,100330.19
2022-10-22T04:35:55.687Z,100330.84
2022-10-22T04:38:23.287Z,100335.34
2022-10-22T04:40:50.879Z,100343.19
2022-10-22T04:43:18.472Z,100345.47
2022-10-22T04:45:46.141Z,100335.25
2022-10-22T04:48:13.817Z,100339.50
2022-10-22T04:50:42.713Z,100340.78
2022-10-22T04:53:10.347Z,100336.09
2022-10-22T04:55:37.992Z,100342.09
2022-10-22T04:58:05.857Z,100341.53
2022-10-22T05:00:33.456Z,100343.09
2022-10-22T05:03:01.061Z,100343.16
2022-10-22T05:05:28.642Z,100357.19
2022-10-22T05:07:57.631Z,100364.66
2022-10-22T05:10:25.192Z,100365.69
2022-10-22T05:12:52.760Z,100377.09
2022-10-22T05:15:20.365Z,100381.81
2022-10-22T05:17:48.284Z,100380.03
2022-10-22T05:20:15.855Z,100384.22
2022-10-22T05:22:43.448Z,100387.31
2022-10-22T05:25:12.654Z,100400.44
2022-10-22T05:27:40.536Z,100394.59
2022-10-22T05:30:09.004Z,100393.84
2022-10-22T05:32:36.826Z,100395.81
2022-10-22T05:35:04.703Z,100403.94
2022-10-22T05:37:32.353Z,100402.00
2022-10-22T05:40:12.385Z,100404.03
2022-10-22T05:42:48.961Z,100405.50
2022-10-22T05:45:16.535Z,100407.44
2022-10-22T05:47:44.135Z,100417.13
2022-10-22T05:50:11.858Z,100424.84
2022-10-22T05:52:39.609Z,100420.81
2022-10-22T05:55:08.018Z,100422.44
2022-10-22T05:57:35.596Z,100433.03
2022-10-22T06:00:05.141Z,100429.78
2022-10-22T06:02:32.810Z,100431.03
2022-10-22T06:05:01.045Z,100432.41
2022-10-22T06:07:28.658Z,100439.22
2022-10-22T06:09:56.269Z,100445.34
2022-10-22T06:12:23.908Z,100446.78
2022-10-22T06:14:51.463Z,100451.28
2022-10-22T06:17:20.475Z,100453.63
2022-10-22T06:19:48.138Z,100460.66
2022-10-22T06:22:15.694Z,100460.78
2022-10-22T06:24:45.113Z,100451.16
2022-10-22T06:27:12.961Z,100462.22
2022-10-22T06:29:40.532Z,100469.81
2022-10-22T06:32:08.132Z,100481.59
2022-10-22T06:34:37.097Z,100478.69
2022-10-22T06:37:04.731Z,100479.91
2022-10-22T06:39:32.534Z,100479.41
2022-10-22T06:42:00.198Z,100491.31
2022-10-22T06:44:27.782Z,100494.84
2022-10-22T06:46:55.725Z,100492.06
2022-10-22T06:49:23.344Z,100495.59
2022-10-22T06:51:52.955Z,100500.41
2022-10-22T06:54:20.634Z,100506.28
2022-10-22T06:56:48.588Z,100507.22
2022-10-22T06:59:16.237Z,100509.00
2022-10-22T07:01:43.991Z,100520.50
2022-10-22T07:04:12.308Z,100519.47
2022-10-22T07:06:39.941Z,100520.44
2022-10-22T07:09:09.036Z,100530.41
2022-10-22T07:11:41.203Z,100531.41
2022-10-22T07:14:09.126Z,100530.06
2022-10-22T07:16:37.788Z,100541.56
2022-10-22T07:19:06.582Z,100544.19
2022-10-22T07:21:34.439Z,100546.38
2022-10-22T07:24:02.167Z,100546.44
2022-10-22T07:26:32.625Z,100549.78
2022-10-22T07:29:00.415Z,100552.38
2022-10-22T07:31:28.074Z,100552.50
2022-10-22T07:33:55.818Z,100556.28
2022-10-22T07:36:23.428Z,100551.41
2022-10-22T07:38:55.753Z,100553.25
2022-10-22T07:41:24.117Z,100558.34
2022-10-22T07:43:53.165Z,100560.47
2022-10-22T07:46:21.485Z,100563.44
2022-10-22T07:48:49.317Z,100567.22
2022-10-22T07:51:17.619Z,100560.84
2022-10-22T07:53:45.246Z,100560.19
2022-10-22T07:56:13.815Z,100572.28
2022-10-22T07:58:41.549Z,100562.88
2022-10-22T08:01:10.597Z,100569.53
2022-10-22T08:03:38.257Z,100579.41
2022-10-22T08:06:06.228Z,100576.56
2022-10-22T08:08:34.702Z,100584.03
2022-10-22T08:11:03.027Z,100584.41
2022-10-22T08:13:31.505Z,100586.75
2022-10-22T08:15:59.901Z,100594.03
2022-10-22T08:18:29.707Z,100585.72
2022-10-22T08:20:57.784Z,100598.13
2022-10-22T08:23:28.753Z,100606.06
2022-10-22T08:25:57.222Z,100607.75
2022-10-22T08:28:24.959Z,100605.31
2022-10-22T08:30:52.813Z,100605.69
2022-10-22T08:33:20.434Z,100605.03
2022-10-22T08:35:50.734Z,100605.56
2022-10-22T08:38:19.576Z,100609.59
2022-10-22T08:40:52.619Z,100602.75
2022-10-22T08:43:42.123Z,100596.16
2022-10-22T08:46:33.838Z,100605.06
2022-10-22T08:49:03.983Z,100593.59
2022-10-22T08:51:35.907Z,100593.19
2022-10-22T08:54:14.623Z,100596.47
2022-10-22T08:56:46.892Z,100599.88
2022-10-22T08:59:20.993Z,100605.88
2022-10-22T09:01:52.460Z,100610.53
2022-10-22T09:04:25.484Z,100603.03
2022-10-22T09:06:56.436Z,100604.84
2022-10-22T09:09:28.274Z,100613.22
2022-10-22T09:11:59.045Z,100612.72
2022-10-22T09:14:27.452Z,100613.13
2022-10-22T09:17:12.613Z,100606.38
2022-10-22T09:19:48.022Z,100613.19
2022-10-22T09:22:28.491Z,100601.50
2022-10-22T09:25:01.122Z,100613.13
2022-10-22T09:27:31.784Z,100604.47
2022-10-22T09:29:59.504Z,100601.06
2022-10-22T09:32:33.337Z,100615.31
2022-10-22T09:35:00.963Z,100609.00
2022-10-22T09:37:30.790Z,100613.41
2022-10-22T09:39:59.996Z,100606.84
2022-10-22T09:42:27.605Z,100602.69
2022-10-22T09:44:59.035Z,100598.88
2022-10-22T09:47:43.414Z,100611.91
2022-10-22T09:50:27.369Z,100621.84
2022-10-22T09:53:05.710Z,100624.53
2022-10-22T09:55:33.500Z,100618.53
2022-10-22T09:58:01.752Z,100624.63
2022-10-22T10:00:30.860Z,100627.63
2022-10-22T10:03:00.680Z,100624.56
2022-10-22T10:05:30.749Z,100631.78
2022-10-22T10:08:01.711Z,100630.00
2022-10-22T10:10:36.057Z,100624.81
2022-10-22T10:13:15.833Z,100628.56
2022-10-22T10:15:48.617Z,100629.25
2022-10-22T10:18:26.310Z,100623.44
2022-10-22T10:21:00.486Z,100633.78
2022-10-22T10:23:36.128Z,100631.44
2022-10-22T10:26:08.521Z,100633.22
2022-10-22T10:28:47.379Z,100637.72
2022-10-22T10:31:21.971Z,100638.31
2022-10-22T10:34:01.357Z,100638.56
2022-10-22T10:36:37.876Z,100635.31
2022-10-22T10:39:11.094Z,100633.44
2022-10-22T10:41:47.546Z,100642.00
2022-10-22T10:44:43.932Z,100641.19
2022-10-22T10:47:27.315Z,100643.03
2022-10-22T10:50:03.257Z,100638.63
2022-10-22T10:52:41.083Z,100639.16
2022-10-22T10:55:19.903Z,100639.16
2022-10-22T10:57:56.882Z,100633.78
2022-10-22T11:00:27.796Z,100630.66
2022-10-22T11:03:20.034Z,100629.13
2022-10-22T11:05:54.022Z,100618.03
2022-10-22T11:08:26.441Z,100621.31
2022-10-22T11:11:00.462Z,100621.78
2022-10-22T11:13:32.627Z,100622.25
2022-10-22T11:16:06.478Z,100615.09
2022-10-22T11:18:39.374Z,100605.56
2022-10-22T11:21:15.252Z,100609.09
2022-10-22T11:23:47.387Z,100617.47
2022-10-22T11:26:28.700Z,100613.22
2022-10-22T11:29:01.197Z,100618.41
2022-10-22T11:31:31.567Z,100612.13
2022-10-22T11:34:28.314Z,100620.72
2022-10-22T11:36:54.444Z,100604.38
2022-10-22T11:39:32.963Z,100619.03
2022-10-22T11:42:05.554Z,100613.06
2022-10-22T11:44:46.953Z,100613.84
2022-10-22T11:47:20.742Z,100605.75
2022-10-22T11:49:58.551Z,100608.16
2022-10-22T11:52:39.013Z,100606.13
2022-10-22T11:55:32.923Z,100610.34
2022-10-22T11:58:03.351Z,100608.28
2022-10-22T12:00:36.938Z,100603.34
2022-10-22T12:03:16.871Z,100606.34
2022-10-22T12:05:45.451Z,100598.41
2022-10-22T12:08:21.323Z,100600.69
2022-10-22T12:10:59.485Z,100604.13
2022-10-22T12:13:31.397Z,100598.66
2022-10-22T12:16:02.700Z,100597.91
2022-10-22T12:18:39.861Z,100598.97
2022-10-22T12:21:10.125Z,100587.56
2022-10-22T12:23:38.474Z,100591.59
2022-10-22T12:26:06.797Z,100593.69
2022-10-22T12:28:41.300Z,100588.72
2022-10-22T12:31:17.031Z,100587.13
2022-10-22T12:33:45.006Z,100590.94
2022-10-22T12:36:18.183Z,100591.25
2022-10-22T12:38:48.082Z,100593.41
2022-10-22T12:41:15.804Z,100589.78
2022-10-22T12:43:45.436Z,100584.38
2022-10-22T12:46:14.526Z,100583.53
2022-10-22T12:48:45.514Z,100595.19
2022-10-22T12:51:19.591Z,100591.34
2022-10-22T12:53:49.966Z,100588.75
2022-10-22T12:56:23.079Z,100590.47
2022-10-22T12:58:56.254Z,100588.22
2022-10-22T13:01:26.515Z,100589.03
2022-10-22T13:04:07.757Z,100596.09
2022-10-22T13:06:36.050Z,100598.25
2022-10-22T13:09:09.074Z,100598.09
2022-10-22T13:11:41.411Z,100599.75
2022-10-22T13:14:22.359Z,100601.03
2022-10-22T13:17:11.803Z,100608.78
2022-10-22T13:19:48.913Z,100599.47
2022-10-22T13:22:34.772Z,100590.38
2022-10-22T13:25:20.454Z,100593.69
2022-10-22T13:27:50.488Z,100595.16
2022-10-22T13:30:25.733Z,100598.88
2022-10-22T13:32:55.856Z,100605.94
2022-10-22T13:35:26.754Z,100596.19
2022-10-22T13:37:54.867Z,100600.53
2022-10-22T13:40:22.836Z,100594.53
2022-10-22T13:42:50.673Z,100590.81
2022-10-22T13:45:18.765Z,100595.78
2022-10-22T13:47:51.909Z,100597.47
2022-10-22T13:50:21.434Z,100594.34
2022-10-22T13:52:53.599Z,100590.19
2022-10-22T13:55:25.373Z,100593.72
2022-10-22T13:57:54.177Z,100592.06
2022-10-22T14:00:23.204Z,100593.50
2022-10-22T14:02:55.348Z,100587.69
2022-10-22T14:05:23.385Z,100587.88
2022-10-22T14:07:51.741Z,100591.03
2022-10-22T14:10:20.818Z,100596.19
2022-10-22T14:12:52.404Z,100589.56
2022-10-22T14:15:23.761Z,100582.31
2022-10-22T14:17:55.652Z,100591.22
2022-10-22T14:20:26.040Z,100592.88
2022-10-22T14:22:54.383Z,100584.59
2022-10-22T14:25:24.259Z,100597.03
2022-10-22T14:27:52.329Z,100597.63
2022-10-22T14:30:22.109Z,100588.72
2022-10-22T14:32:50.283Z,100584.59
2022-10-22T14:35:21.529Z,100589.94
2022-10-22T14:37:49.666Z,100590.75
2022-10-22T14:40:20.090Z,100589.09
2022-10-22T14:42:50.245Z,100584.53
2022-10-22T14:45:20.911Z,100588.28
2022-10-22T14:47:49.433Z,100587.88
2022-10-22T14:50:17.335Z,100582.75
2022-10-22T14:55:31.242Z,100583.34
2022-10-22T14:57:58.968Z,100583.78
2022-10-22T15:00:26.666Z,100592.47
2022-10-22T15:02:55.720Z,100579.22
2022-10-22T15:05:23.712Z,100580.88
2022-10-22T15:07:52.677Z,100581.31
2022-10-22T15:10:20.289Z,100582.97
2022-10-22T15:12:48.137Z,100585.44
2022-10-22T15:15:22.811Z,100583.38
2022-10-22T15:17:51.411Z,100582.13
2022-10-22T15:20:19.041Z,100584.59
2022-10-22T15:22:46.629Z,100591.00
2022-10-22T15:25:15.747Z,100590.16
2022-10-22T15:27:45.517Z,100591.59
2022-10-22T15:30:16.495Z,100591.59
2022-10-22T15:32:44.168Z,100591.31
2022-10-22T15:35:11.855Z,100592.97
2022-10-22T15:37:39.446Z,100594.84
2022-10-22T15:40:08.704Z,100598.13
2022-10-22T15:42:37.627Z,100597.28
2022-10-22T15:45:05.874Z,100599.38
2022-10-22T15:47:33.921Z,100593.38
2022-10-22T15:50:01.514Z,100590.03
2022-10-22T15:52:29.124Z,100582.78
2022-10-22T15:54:56.693Z,100592.28
2022-10-22T15:57:24.361Z,100589.78
2022-10-22T15:59:53.386Z,100599.94
2022-10-22T16:02:21.002Z,100597.81
2022-10-22T16:04:48.669Z,100595.13
2022-10-22T16:07:17.335Z,100590.56
2022-10-22T16:09:46.431Z,100585.59
2022-10-22T16:12:16.574Z,100596.31
2022-10-22T16:14:44.976Z,100595.03
2022-10-22T16:17:13.914Z,100585.94
2022-10-22T16:19:41.514Z,100592.94
2022-10-22T16:22:13.657Z,100591.28
2022-10-22T16:24:41.364Z,100588.78
2022-10-22T16:27:09.272Z,100589.13
2022-10-22T16:29:38.768Z,100592.22
2022-10-22T16:32:07.507Z,100592.44
2022-10-22T16:34:36.405Z,100600.50
2022-10-22T16:37:09.705Z,100591.78
2022-10-22T16:39:37.338Z,100596.91
2022-10-22T16:42:05.186Z,100589.03
2022-10-22T16:44:32.749Z,100596.84
2022-10-22T16:47:00.886Z,100600.50
2022-10-22T16:49:28.515Z,100606.25
2022-10-22T16:51:57.720Z,100603.19
2022-10-22T16:54:25.421Z,100604.22
2022-10-22T16:56:53.123Z,100607.88
2022-10-22T16:59:20.715Z,100609.53
2022-10-22T17:01:48.314Z,100608.91
2022-10-22T17:04:17.259Z,100623.53
2022-10-22T17:06:44.910Z,100613.22
2022-10-22T17:09:14.947Z,100628.22
2022-10-22T17:11:44.830Z,100623.06
2022-10-22T17:14:14.550Z,100630.91
2022-10-22T17:16:42.140Z,100633.59
2022-10-22T17:19:13.936Z,100632.97
2022-10-22T17:21:41.590Z,100630.91
2022-10-22T17:24:09.950Z,100632.75
2022-10-22T17:26:38.917Z,100632.91
2022-10-22T17:29:06.893Z,100632.78
2022-10-22T17:31:37.893Z,100638.28
2022-10-22T17:34:07.154Z,100639.69
2022-10-22T17:36:36.183Z,100643.38
2022-10-22T17:39:07.342Z,100635.72
2022-10-22T17:41:37.967Z,100645.44
2022-10-22T17:44:09.818Z,100651.66
2022-10-22T17:46:38.416Z,100655.13
2022-10-22T17:49:09.183Z,100656.19
2022-10-22T17:51:36.755Z,100666.91
2022-10-22T17:54:07.377Z,100670.41
2022-10-22T17:56:40.284Z,100667.53
2022-10-22T17:59:10.648Z,100672.69
2022-10-22T18:01:43.289Z,100668.94
2022-10-22T18:04:14.182Z,100669.50
2022-10-22T18:06:41.899Z,100668.75
2022-10-22T18:09:17.264Z,100673.72
2022-10-22T18:11:46.488Z,100665.66
2022-10-22T18:14:15.535Z,100663.00
2022-10-22T18:16:43.151Z,100663.38
2022-10-22T18:19:11.442Z,100665.63
2022-10-22T18:21:39.086Z,100664.72
2022-10-22T18:24:07.467Z,100666.19
2022-10-22T18:26:35.678Z,100659.28
2022-10-22T18:29:03.379Z,100667.16
2022-10-22T18:31:32.768Z,100660.50
2022-10-22T18:34:00.510Z,100664.09
2022-10-22T18:36:28.922Z,100652.00
2022-10-22T18:38:58.510Z,100657.81
2022-10-22T18:41:27.530Z,100645.88
2022-10-22T18:43:56.731Z,100649.69
2022-10-22T18:46:24.924Z,100654.41
2022-10-22T18:48:55.499Z,100650.69
2022-10-22T18:51:24.218Z,100645.72
2022-10-22T18:54:05.350Z,100653.97
2022-10-22T18:56:40.631Z,100651.94
2022-10-22T18:59:14.336Z,100653.72
2022-10-22T19:01:42.187Z,100650.84
2022-10-22T19:04:11.098Z,100641.81
2022-10-22T19:06:41.792Z,100649.19
2022-10-22T19:09:13.627Z,100650.28
2022-10-22T19:11:41.330Z,100650.84
2022-10-22T19:14:08.891Z,100647.97
2022-10-22T19:16:37.640Z,100649.44
2022-10-22T19:19:07.205Z,100635.34
2022-10-22T19:21:37.530Z,100646.41
2022-10-22T19:24:05.505Z,100646.59
2022-10-22T19:26:33.107Z,100653.03
2022-10-22T19:29:01.540Z,100642.22
2022-10-22T19:31:31.130Z,100648.06
2022-10-22T19:33:59.593Z,100646.03
2022-10-22T19:36:28.794Z,100650.56
2022-10-22T19:38:58.301Z,100654.59
2022-10-22T19:41:27.908Z,100650.19
2022-10-22T19:43:56.825Z,100644.75
2022-10-22T19:46:26.600Z,100638.72
2022-10-22T19:48:56.191Z,100639.97
2022-10-22T19:51:25.760Z,100636.16
2022-10-22T19:54:00.565Z,100639.50
2022-10-22T19:56:28.572Z,100638.91
2022-10-22T19:58:56.284Z,100646.97
2022-10-22T20:01:24.156Z,100647.78
2022-10-22T20:03:51.876Z,100649.44
2022-10-22T20:06:21.830Z,100657.22
2022-10-22T20:08:52.484Z,100653.53
2022-10-22T20:11:26.190Z,100656.94
2022-10-22T20:13:53.864Z,100660.84
2022-10-22T20:16:25.013Z,100659.63
2022-10-22T20:18:52.900Z,100660.25
2022-10-22T20:21:21.907Z,100663.69
2022-10-22T20:23:54.055Z,100660.63
2022-10-22T20:26:23.693Z,100656.69
2022-10-22T20:28:52.719Z,100661.19
2022-10-22T20:31:22.203Z,100652.50
2022-10-22T20:33:51.353Z,100664.88
2022-10-22T20:36:20.751Z,100663.03
2022-10-22T20:38:48.842Z,100667.13
2022-10-22T20:41:19.088Z,100660.19
2022-10-22T20:43:48.026Z,100660.91
2022-10-22T20:46:19.731Z,100659.13
2022-10-22T20:48:47.629Z,100655.34
2022-10-22T20:51:15.247Z,100660.22
2022-10-22T20:53:43.001Z,100652.72
2022-10-22T20:56:11.056Z,100652.72
2022-10-22T20:58:39.079Z,100649.50
2022-10-22T21:01:12.022Z,100644.25
2022-10-22T21:03:40.945Z,100651.28
2022-10-22T21:06:08.926Z,100647.59
2022-10-22T21:08:36.562Z,100653.97
2022-10-22T21:11:04.118Z,100655.34
2022-10-22T21:13:33.167Z,100659.00
2022-10-22T21:16:00.802Z,100664.38
2022-10-22T21:18:28.370Z,100652.34
2022-10-22T21:20:57.269Z,100657.44
2022-10-22T21:23:24.907Z,100652.59
2022-10-22T21:25:56.637Z,100654.41
2022-10-22T21:28:24.346Z,100654.03
2022-10-22T21:30:51.977Z,100653.34
2022-10-22T21:33:19.641Z,100652.34
2022-10-22T21:35:54.697Z,100649.19
2022-10-22T21:38:25.210Z,100650.66
2022-10-22T21:40:53.575Z,100641.53
2022-10-22T21:43:21.404Z,100639.75
2022-10-22T21:45:49.196Z,100646.47
2022-10-22T21:48:17.123Z,100640.59
2022-10-22T21:50:45.411Z,100646.13
2022-10-22T21:53:13.756Z,100648.50
2022-10-22T21:55:43.112Z,100653.06
2022-10-22T21:58:10.737Z,100656.06
2022-10-22T22:00:38.319Z,100653.06
2022-10-22T22:03:08.247Z,100651.41
2022-10-22T22:05:35.818Z,100649.56
2022-10-22T22:08:03.436Z,100649.41
2022-10-22T22:10:31.214Z,100654.09
2022-10-22T22:13:00.224Z,100649.63
2022-10-22T22:15:28.684Z,100655.66
2022-10-22T22:17:56.384Z,100656.38
2022-10-22T22:20:24.219Z,100662.91
2022-10-22T22:22:51.866Z,100662.41
2022-10-22T22:25:19.540Z,100657.59
2022-10-22T22:27:47.162Z,100659.69
2022-10-22T22:30:17.819Z,100654.22
2022-10-22T22:32:45.470Z,100655.50
2022-10-22T22:35:13.370Z,100654.66
2022-10-22T22:37:41.305Z,100653.94
2022-10-22T22:40:10.124Z,100647.41
2022-10-22T22:42:37.811Z,100640.19
2022-10-22T22:45:05.935Z,100632.81
2022-10-22T22:47:34.856Z,100631.53
2022-10-22T22:50:02.512Z,100627.84
2022-10-22T22:52:30.107Z,100627.00
2022-10-22T22:54:57.687Z,100619.88
2022-10-22T22:57:25.317Z,100621.41
2022-10-22T22:59:53.314Z,100621.06
2022-10-22T23:02:20.932Z,100620.22
2022-10-22T23:04:49.921Z,100627.53
2022-10-22T23:07:17.552Z,100620.34
2022-10-22T23:09:45.331Z,100623.19
2022-10-22T23:12:12.905Z,100630.59
2022-10-22T23:14:40.572Z,100620.22
2022-10-22T23:17:08.215Z,100614.22
2022-10-22T23:19:35.855Z,100620.97
2022-10-22T23:22:04.885Z,100618.31
2022-10-22T23:24:32.594Z,100621.34
2022-10-22T23:27:02.876Z,100627.53
2022-10-22T23:29:32.445Z,100630.09
2022-10-22T23:32:01.710Z,100627.75
2022-10-22T23:34:30.358Z,100627.06
2022-10-22T23:36:58.947Z,100615.38
2022-10-22T23:39:29.300Z,100618.38
2022-10-22T23:41:57.636Z,100630.44
2022-10-22T23:44:25.737Z,100625.41
2022-10-22T23:46:53.482Z,100630.56
2022-10-22T23:49:21.138Z,100628.06
2022-10-22T23:51:49.131Z,100631.28
2022-10-22T23:54:17.769Z,100636.13
2022-10-22T23:56:47.098Z,100634.47
